Time;durP1;ratioP1;P1;durP2;ratioP2;P2;SDS_P1;SDS_P2;PMS_P1;PMS_P2;Temp;Humidity;BMP_temperature;BMP_pressure;BME280_temperature;BME280_humidity;BME280_pressure;Samples;Min_cycle;Max_cycle;Signal;HPM_P1;HPM_P2
2022/05/17 00:05:27;;;;;;;11.10;4.50;;;;;;;19.28;65.48;97909.34;10121140;29;20049;-75
2022/05/17 00:10:48;;;;;;;9.35;4.28;;;;;;;19.30;65.75;97904.50;10081119;29;20121;-75
2022/05/17 00:16:09;;;;;;;14.60;3.85;;;;;;;19.33;65.33;97908.84;10074565;29;20049;-76
2022/05/17 00:21:29;;;;;;;8.85;4.00;;;;;;;19.33;65.56;97886.19;10114600;29;20048;-75
2022/05/17 00:26:50;;;;;;;6.57;3.63;;;;;;;19.29;65.94;97883.22;10114491;29;20466;-75
2022/05/17 00:32:11;;;;;;;6.18;4.03;;;;;;;19.21;65.93;97890.72;10114407;29;20072;-75
2022/05/17 00:37:32;;;;;;;9.07;3.75;;;;;;;19.14;66.29;97879.16;10113968;29;20063;-75
2022/05/17 00:42:53;;;;;;;6.80;3.70;;;;;;;19.05;66.29;97871.75;10121438;29;20060;-75
2022/05/17 00:48:13;;;;;;;8.38;3.97;;;;;;;18.96;66.64;97867.19;10140205;29;20100;-76
2022/05/17 00:53:34;;;;;;;5.82;3.40;;;;;;;18.96;66.79;97870.00;10141192;29;20049;-75
2022/05/17 00:58:56;;;;;;;8.10;3.60;;;;;;;18.93;66.76;97857.19;10127428;29;20072;-75
2022/05/17 01:04:21;;;;;;;6.40;3.28;;;;;;;18.93;66.51;97867.75;10126024;29;20480;-75
2022/05/17 01:09:41;;;;;;;7.10;3.72;;;;;;;18.95;67.17;97871.38;10090672;29;20607;-75
2022/05/17 01:15:04;;;;;;;6.53;3.38;;;;;;;19.01;66.86;97870.88;10087294;29;20045;-76
2022/05/17 01:20:25;;;;;;;7.18;3.05;;;;;;;19.05;66.88;97868.19;10088512;29;20045;-76
2022/05/17 01:25:46;;;;;;;5.82;3.35;;;;;;;19.08;66.82;97870.44;10104585;29;20048;-76
2022/05/17 01:31:07;;;;;;;5.40;3.05;;;;;;;19.15;66.69;97871.41;10125589;29;20045;-76
2022/05/17 01:36:30;;;;;;;5.50;2.92;;;;;;;19.18;66.80;97881.41;10126091;29;20053;-75
2022/05/17 01:41:51;;;;;;;6.85;2.90;;;;;;;19.21;66.66;97880.09;10138812;29;20113;-75
2022/05/17 01:47:12;;;;;;;6.95;3.15;;;;;;;19.28;66.42;97878.19;10111639;29;20491;-75
2022/05/17 01:52:33;;;;;;;5.72;2.83;;;;;;;19.30;66.47;97866.94;10110228;29;20510;-75
2022/05/17 01:57:53;;;;;;;7.20;2.85;;;;;;;19.29;66.48;97863.41;10111165;29;20037;-75
2022/05/17 02:03:14;;;;;;;6.97;3.20;;;;;;;19.25;66.42;97856.88;10094268;29;20449;-75
2022/05/17 02:08:36;;;;;;;5.78;2.80;;;;;;;19.23;66.25;97853.97;10110953;29;20105;-76
2022/05/17 02:13:57;;;;;;;6.13;3.10;;;;;;;19.14;66.05;97853.69;10107708;29;20092;-75
2022/05/17 02:19:20;;;;;;;6.07;2.85;;;;;;;19.13;66.02;97846.59;10123089;29;20046;-75
2022/05/17 02:24:41;;;;;;;8.15;3.17;;;;;;;19.09;66.33;97851.34;10110861;29;20052;-75
2022/05/17 02:30:03;;;;;;;5.22;2.90;;;;;;;19.02;66.13;97853.28;10110678;29;20436;-76
2022/05/17 02:35:23;;;;;;;4.75;2.90;;;;;;;18.95;66.54;97860.06;10111085;29;20535;-75
2022/05/17 02:40:44;;;;;;;7.40;3.30;;;;;;;18.95;66.69;97865.72;10109862;29;20063;-75
2022/05/17 02:46:05;;;;;;;5.90;2.75;;;;;;;18.94;66.37;97866.38;10123112;29;20127;-76
2022/05/17 02:51:26;;;;;;;3.85;2.90;;;;;;;18.89;66.80;97862.66;10091151;29;20057;-76
2022/05/17 02:56:46;;;;;;;7.03;3.20;;;;;;;18.83;66.67;97860.34;10103619;29;20053;-76
2022/05/17 03:02:07;;;;;;;5.43;2.50;;;;;;;18.80;66.64;97866.56;10122710;29;20059;-78
2022/05/17 03:07:28;;;;;;;5.95;3.08;;;;;;;18.78;66.54;97874.97;10109224;29;20040;-76
2022/05/17 03:12:49;;;;;;;5.30;3.03;;;;;;;18.78;66.59;97869.31;10096370;29;20049;-76
2022/05/17 03:18:09;;;;;;;10.18;3.53;;;;;;;18.76;66.87;97869.97;10085081;29;20103;-75
2022/05/17 03:23:30;;;;;;;5.45;2.92;;;;;;;18.80;66.71;97875.06;10108575;29;20538;-76
2022/05/17 03:28:51;;;;;;;6.40;3.53;;;;;;;18.80;66.98;97881.44;10121255;29;20114;-75
2022/05/17 03:34:12;;;;;;;3.85;2.80;;;;;;;18.80;67.29;97886.38;10107847;29;20079;-75
2022/05/17 03:39:33;;;;;;;7.05;3.40;;;;;;;18.72;67.49;97886.06;10108383;29;20088;-76
2022/05/17 03:44:54;;;;;;;7.60;3.22;;;;;;;18.72;67.46;97886.06;10109040;29;20756;-75
2022/05/17 03:50:14;;;;;;;7.78;3.08;;;;;;;18.78;67.44;97891.94;10109194;29;20476;-75
2022/05/17 03:55:35;;;;;;;6.20;3.15;;;;;;;18.78;67.75;97903.25;10108333;29;20053;-75
2022/05/17 04:00:55;;;;;;;6.88;3.60;;;;;;;18.75;67.79;97910.22;10108936;29;20049;-76
2022/05/17 04:06:16;;;;;;;5.20;3.35;;;;;;;18.76;68.01;97903.91;10107947;29;20075;-76
2022/05/17 04:11:37;;;;;;;6.40;4.13;;;;;;;18.78;67.98;97906.09;10108144;29;20044;-76
2022/05/17 04:16:57;;;;;;;7.55;3.58;;;;;;;18.77;67.97;97908.19;10107406;29;20525;-75
2022/05/17 04:22:19;;;;;;;6.18;3.47;;;;;;;18.80;68.08;97906.16;10098520;29;20049;-78
2022/05/17 04:27:39;;;;;;;6.78;3.78;;;;;;;18.82;67.94;97909.09;10110296;29;20055;-76
2022/05/17 04:33:01;;;;;;;6.10;3.72;;;;;;;18.88;68.06;97917.78;10161018;29;20517;-76
2022/05/17 04:38:24;;;;;;;6.22;3.75;;;;;;;18.98;68.11;97923.09;10155726;29;20071;-76
2022/05/17 04:43:46;;;;;;;7.00;4.18;;;;;;;18.99;67.78;97925.25;10125557;29;20451;-79
2022/05/17 04:49:07;;;;;;;6.05;4.18;;;;;;;19.01;68.11;97919.72;10113597;29;20057;-80
2022/05/17 04:54:30;;;;;;;7.95;4.70;;;;;;;19.10;67.86;97920.72;10095926;29;20099;-78
2022/05/17 04:59:52;;;;;;;7.05;3.90;;;;;;;19.15;67.92;97931.53;10108106;29;20522;-83
2022/05/17 05:05:23;;;;;;;8.93;4.97;;;;;;;19.16;67.67;97941.47;10095697;29;20844;-77
2022/05/17 05:11:24;;;;;;;8.32;4.82;;;;;;;19.13;67.67;97936.41;10128692;29;20057;-79
2022/05/17 05:16:45;;;;;;;7.75;5.40;;;;;;;19.15;67.62;97930.81;10101105;29;20057;-75
2022/05/17 05:22:06;;;;;;;7.30;5.20;;;;;;;19.17;67.43;97933.72;10072956;29;20045;-75
2022/05/17 05:27:33;;;;;;;9.05;6.03;;;;;;;19.15;67.63;97945.69;10078710;29;20075;-74
2022/05/17 05:32:57;;;;;;;11.07;6.38;;;;;;;19.16;67.21;97932.97;10108038;29;20529;-74
2022/05/17 05:38:18;;;;;;;9.32;6.78;;;;;;;19.29;67.57;97936.97;10121937;29;20044;-74
2022/05/17 05:43:39;;;;;;;10.38;8.35;;;;;;;19.51;67.05;97934.25;10123483;29;20040;-75
2022/05/17 05:49:00;;;;;;;11.98;8.10;;;;;;;19.68;66.79;97952.53;10140756;29;20442;-81
2022/05/17 05:54:21;;;;;;;11.50;8.43;;;;;;;19.77;66.55;97954.28;10135007;29;20044;-81
2022/05/17 05:59:41;;;;;;;10.40;8.70;;;;;;;19.78;66.10;97949.31;10090619;29;20111;-80
2022/05/17 06:05:02;;;;;;;11.13;8.35;;;;;;;19.86;66.12;97952.44;10091878;29;20056;-81
2022/05/17 06:10:23;;;;;;;8.80;7.70;;;;;;;20.01;65.38;97957.22;10108801;29;20044;-80
2022/05/17 06:15:44;;;;;;;10.20;7.20;;;;;;;20.14;65.48;97949.84;10122695;29;20049;-80
2022/05/17 06:21:05;;;;;;;10.52;6.78;;;;;;;20.24;64.60;97955.84;10069526;29;20049;-81
2022/05/17 06:26:25;;;;;;;8.52;6.57;;;;;;;20.32;65.06;97952.56;10122663;29;20052;-75
2022/05/17 06:31:47;;;;;;;7.55;6.03;;;;;;;20.60;64.35;97947.09;10109555;29;20092;-83
2022/05/17 06:37:08;;;;;;;9.30;5.25;;;;;;;21.49;63.91;97960.41;10110005;29;20071;-85
2022/05/17 06:42:29;;;;;;;7.03;5.07;;;;;;;22.54;61.15;97953.91;10128113;29;20071;-82
2022/05/17 06:47:50;;;;;;;5.43;3.88;;;;;;;22.16;60.41;97960.09;10122588;29;20451;-82
2022/05/17 06:53:11;;;;;;;4.60;3.38;;;;;;;22.14;60.18;97957.19;10121216;29;20045;-78
2022/05/17 06:58:31;;;;;;;3.60;3.13;;;;;;;22.36;59.84;97971.25;10122204;29;20056;-79
2022/05/17 07:03:53;;;;;;;7.20;3.70;;;;;;;22.07;58.95;97977.59;10135100;29;20113;-78
2022/05/17 07:09:14;;;;;;;5.27;3.80;;;;;;;22.07;59.11;97977.59;10122617;29;20041;-77
2022/05/17 07:14:37;;;;;;;8.30;4.20;;;;;;;21.98;58.50;97980.19;10121933;29;20539;-77
2022/05/17 07:19:58;;;;;;;5.80;3.88;;;;;;;21.99;58.36;97981.66;10134754;29;20403;-85
2022/05/17 07:25:18;;;;;;;6.10;4.57;;;;;;;22.38;59.05;97988.34;10134749;29;20048;-85
2022/05/17 07:30:40;;;;;;;5.80;3.92;;;;;;;23.75;54.90;97991.44;10122132;29;20396;-83
2022/05/17 07:36:01;;;;;;;4.85;3.50;;;;;;;25.34;57.11;97995.50;10121563;29;20056;-80
2022/05/17 07:41:23;;;;;;;5.60;3.67;;;;;;;29.88;48.29;97988.13;10121334;29;20065;-81
2022/05/17 07:46:44;;;;;;;4.68;3.00;;;;;;;31.73;41.69;97998.03;10121163;29;20084;-81
2022/05/17 07:52:06;;;;;;;3.92;2.28;;;;;;;34.67;38.60;98013.69;10107471;29;20040;-82
2022/05/17 07:57:29;;;;;;;5.72;2.03;;;;;;;40.95;27.58;98021.00;10069211;29;20049;-83
2022/05/17 08:02:53;;;;;;;4.22;2.10;;;;;;;41.22;26.81;98020.34;10085285;29;20053;-83
2022/05/17 08:08:14;;;;;;;2.92;2.10;;;;;;;36.67;26.54;98008.72;10085385;29;20419;-81
2022/05/17 08:13:35;;;;;;;7.25;2.17;;;;;;;32.76;29.23;98015.34;10101960;29;20048;-81
2022/05/17 08:19:17;;;;;;;1.92;1.73;;;;;;;34.21;30.48;98018.38;10096339;29;20044;-84
2022/05/17 08:30:19;;;;;;;1.63;1.50;;;;;;;33.56;28.04;98021.16;10119885;29;20040;-80
2022/05/17 08:35:55;;;;;;;1.95;1.23;;;;;;;30.26;30.04;98027.50;10101462;29;20055;-81
2022/05/17 08:41:29;;;;;;;2.00;1.58;;;;;;;27.24;33.69;98029.56;10116188;29;20060;-75
2022/05/17 08:46:57;;;;;;;1.92;1.50;;;;;;;26.29;36.12;98020.91;10111569;29;20057;-81
2022/05/17 08:52:40;;;;;;;3.35;1.50;;;;;;;27.72;37.74;98033.44;10116138;29;20399;-76
2022/05/17 08:58:17;;;;;;;2.50;1.80;;;;;;;27.87;36.14;98032.03;10113633;29;20053;-76
2022/05/17 09:04:10;;;;;;;2.90;1.65;;;;;;;26.64;36.75;98035.56;10100752;29;20055;-77
2022/05/17 09:09:47;;;;;;;2.30;1.67;;;;;;;24.76;38.27;98046.72;10115306;29;20057;-78
2022/05/17 09:15:08;;;;;;;6.03;2.13;;;;;;;23.73;41.04;98056.91;10100852;29;20049;-75
2022/05/17 09:20:31;;;;;;;3.53;2.40;;;;;;;22.99;42.04;98058.16;10099642;29;20049;-75
2022/05/17 09:25:58;;;;;;;4.05;2.05;;;;;;;24.19;44.43;98072.09;10099836;29;20408;-76
2022/05/17 09:31:22;;;;;;;4.72;1.85;;;;;;;30.26;40.32;98076.44;10124801;29;20049;-78
2022/05/17 09:36:53;;;;;;;2.88;2.17;;;;;;;30.30;34.72;98087.19;10139397;29;20048;-76
2022/05/17 09:42:30;;;;;;;4.13;2.28;;;;;;;28.97;36.59;98084.66;10125639;29;20060;-75
2022/05/17 09:47:57;;;;;;;4.38;2.13;;;;;;;34.53;33.53;98086.47;10109156;29;20044;-80
2022/05/17 09:53:18;;;;;;;4.53;1.80;;;;;;;42.68;24.82;98096.09;10121876;29;20396;-79
2022/05/17 09:58:47;;;;;;;3.63;1.40;;;;;;;40.50;20.18;98099.22;10111140;29;20060;-79
2022/05/17 10:04:18;;;;;;;4.78;2.35;;;;;;;37.18;20.95;98103.78;10116050;29;20056;-76
2022/05/17 10:09:39;;;;;;;3.05;2.20;;;;;;;33.27;24.27;98104.13;10136301;29;20044;-78
2022/05/17 10:15:03;;;;;;;4.13;1.67;;;;;;;35.83;25.92;98109.31;10115414;29;20067;-79
2022/05/17 10:20:35;;;;;;;2.60;1.35;;;;;;;40.87;20.58;98115.06;10109391;29;20048;-78
2022/05/17 10:26:08;;;;;;;2.97;1.33;;;;;;;39.94;17.86;98112.00;10109011;29;20527;-79
2022/05/17 10:31:31;;;;;;;2.00;1.10;;;;;;;34.10;20.45;98125.75;10116941;29;20048;-77
2022/05/17 10:36:56;;;;;;;1.80;1.35;;;;;;;29.89;25.15;98128.38;10122225;29;20044;-80
2022/05/17 10:42:17;;;;;;;2.85;1.10;;;;;;;28.22;28.25;98139.75;10111474;29;20068;-77
2022/05/17 10:47:48;;;;;;;2.60;1.20;;;;;;;27.51;30.42;98141.53;10134481;29;20041;-76
2022/05/17 10:53:40;;;;;;;3.40;1.33;;;;;;;27.66;32.73;98140.91;10123470;29;20052;-79
2022/05/17 10:59:27;;;;;;;1.35;0.93;;;;;;;33.10;25.91;98152.84;10128656;29;20289;-78
2022/05/17 11:05:14;;;;;;;4.88;1.83;;;;;;;31.62;26.82;98164.06;10122320;29;20049;-78
2022/05/17 11:10:38;;;;;;;3.45;1.48;;;;;;;30.83;28.53;98167.56;10122570;29;20476;-74
2022/05/17 11:16:05;;;;;;;3.33;1.85;;;;;;;29.58;29.68;98161.53;10134089;29;20041;-75
2022/05/17 11:21:30;;;;;;;2.05;1.25;;;;;;;29.40;30.75;98161.53;10121701;29;20052;-74
2022/05/17 11:27:36;;;;;;;11.02;2.22;;;;;;;28.68;32.04;98180.84;10121301;29;20115;-75
2022/05/17 11:33:28;;;;;;;2.75;1.55;;;;;;;27.96;32.59;98171.19;10133497;29;20514;-75
2022/05/17 11:38:51;;;;;;;3.25;1.83;;;;;;;27.30;33.69;98178.63;10112455;29;20112;-77
2022/05/17 11:44:27;;;;;;;3.05;2.00;;;;;;;27.30;34.07;98183.63;10129510;29;20041;-76
2022/05/17 11:49:48;;;;;;;3.00;2.45;;;;;;;26.67;35.17;98183.03;10115838;29;20475;-77
2022/05/17 11:55:10;;;;;;;2.97;2.28;;;;;;;26.77;35.21;98174.53;10099171;29;20053;-75
2022/05/17 12:00:35;;;;;;;2.53;2.20;;;;;;;26.74;35.20;98181.66;10114136;29;20048;-75
2022/05/17 12:05:58;;;;;;;4.47;2.08;;;;;;;26.66;35.38;98182.31;10102157;29;20044;-77
2022/05/17 12:11:28;;;;;;;2.83;1.80;;;;;;;27.33;34.70;98187.97;10115040;29;20447;-75
2022/05/17 12:16:51;;;;;;;4.18;2.08;;;;;;;26.83;34.53;98200.38;10114668;29;20053;-76
2022/05/17 12:22:44;;;;;;;3.83;1.98;;;;;;;25.95;35.89;98198.56;10089343;29;20056;-75
2022/05/17 12:28:10;;;;;;;3.22;2.17;;;;;;;26.17;36.11;98192.44;10104286;29;20491;-75
2022/05/17 12:33:37;;;;;;;3.05;2.63;;;;;;;26.56;35.96;98196.50;10101659;29;20395;-75
2022/05/17 12:44:42;;;;;;;3.15;2.60;;;;;;;26.98;34.88;98201.94;10126912;29;20051;-75
2022/05/17 12:50:04;;;;;;;3.53;2.72;;;;;;;25.76;35.92;98211.16;10100779;29;20059;-75
2022/05/17 12:55:26;;;;;;;5.13;2.63;;;;;;;25.62;36.42;98217.34;10100206;29;20056;-75
2022/05/17 13:00:52;;;;;;;3.58;3.10;;;;;;;26.02;35.98;98210.81;10098352;29;20045;-75
2022/05/17 13:06:12;;;;;;;3.80;2.78;;;;;;;26.03;36.19;98217.97;10113346;29;20076;-76
2022/05/17 13:11:33;;;;;;;4.50;2.90;;;;;;;25.91;36.77;98224.25;10101109;29;20100;-76
2022/05/17 13:17:06;;;;;;;4.45;2.70;;;;;;;25.89;36.37;98216.38;10130697;29;20044;-77
2022/05/17 13:22:39;;;;;;;3.75;2.85;;;;;;;25.53;37.11;98204.34;10102108;29;20044;-81
2022/05/17 13:28:04;;;;;;;4.03;3.03;;;;;;;25.66;36.81;98203.84;10110257;29;20085;-80
2022/05/17 13:33:28;;;;;;;3.92;2.95;;;;;;;25.10;37.76;98201.53;10131561;29;20044;-81
2022/05/17 13:38:49;;;;;;;4.43;3.08;;;;;;;25.21;37.87;98198.84;10146490;29;20051;-82
2022/05/17 13:44:10;;;;;;;4.80;3.28;;;;;;;25.02;38.12;98192.81;10133680;29;20048;-81
2022/05/17 13:49:32;;;;;;;4.95;2.85;;;;;;;24.99;37.86;98197.00;10095445;29;20504;-81
2022/05/17 13:54:55;;;;;;;4.43;3.13;;;;;;;25.13;37.85;98205.13;10113453;29;20388;-83
2022/05/17 14:00:16;;;;;;;5.15;3.05;;;;;;;24.67;37.87;98194.28;10071346;29;20048;-76
2022/05/17 14:05:54;;;;;;;5.97;2.92;;;;;;;24.46;38.50;98201.00;10131837;29;20040;-78
2022/05/17 14:17:02;;;;;;;6.00;3.67;;;;;;;24.13;38.86;98191.78;10121944;29;20045;-78
2022/05/17 14:22:26;;;;;;;6.30;4.80;;;;;;;23.55;39.19;98199.72;10095021;29;20048;-77
2022/05/17 14:27:47;;;;;;;7.78;4.90;;;;;;;22.87;40.25;98197.28;10092074;29;20041;-81
2022/05/17 14:33:08;;;;;;;7.07;4.93;;;;;;;22.80;41.27;98201.38;10119734;29;20052;-81
2022/05/17 14:38:30;;;;;;;6.00;4.50;;;;;;;22.88;41.13;98215.84;10106901;29;20088;-85
2022/05/17 14:43:50;;;;;;;7.65;3.65;;;;;;;22.85;40.92;98212.19;10120396;29;20067;-82
2022/05/17 14:49:13;;;;;;;6.60;4.35;;;;;;;22.79;41.21;98217.00;10119341;29;20049;-79
2022/05/17 14:54:37;;;;;;;8.70;5.63;;;;;;;22.84;41.07;98210.03;10106353;29;20411;-80
2022/05/17 14:59:59;;;;;;;7.22;6.13;;;;;;;22.27;41.55;98208.44;10094288;29;20080;-77
2022/05/17 15:05:20;;;;;;;9.18;7.22;;;;;;;21.67;42.70;98216.56;10092771;29;20511;-79
2022/05/17 15:10:42;;;;;;;8.82;7.30;;;;;;;21.55;43.74;98224.69;10079910;29;20036;-80
2022/05/17 15:16:03;;;;;;;9.90;7.57;;;;;;;21.45;44.11;98219.41;10097660;29;20052;-81
2022/05/17 15:21:23;;;;;;;7.78;6.50;;;;;;;21.52;44.06;98223.16;10105939;29;20044;-77
2022/05/17 15:26:45;;;;;;;7.43;5.82;;;;;;;21.60;44.59;98215.63;10086238;29;21733;-79
2022/05/17 15:32:06;;;;;;;7.30;5.28;;;;;;;21.68;44.48;98218.00;10104414;29;20052;-81
2022/05/17 15:37:27;;;;;;;9.48;5.72;;;;;;;21.79;44.52;98214.09;10092704;29;20052;-87
2022/05/17 15:42:50;;;;;;;7.25;4.65;;;;;;;21.70;44.67;98215.22;10067398;29;20064;-82
2022/05/17 15:53:54;;;;;;;8.50;3.95;;;;;;;21.87;44.46;98217.19;10040275;29;20070;-75
2022/05/17 15:59:15;;;;;;;7.18;3.38;;;;;;;21.85;43.83;98211.44;10079045;29;20052;-75
2022/05/17 16:04:54;;;;;;;5.60;3.00;;;;;;;21.82;43.43;98212.78;10118589;29;20047;-75
2022/05/17 16:10:16;;;;;;;4.90;3.40;;;;;;;21.75;43.61;98208.28;10093476;29;20055;-75
2022/05/17 16:15:44;;;;;;;4.93;3.92;;;;;;;21.91;43.39;98222.28;10100995;29;20045;-76
2022/05/17 16:21:05;;;;;;;9.02;4.85;;;;;;;21.61;44.05;98222.03;10100102;29;20063;-75
2022/05/17 16:26:27;;;;;;;10.90;4.50;;;;;;;21.19;44.43;98218.53;10066784;29;20056;-75
2022/05/17 16:31:48;;;;;;;8.75;4.90;;;;;;;20.99;45.25;98218.56;10074311;29;20045;-75
2022/05/17 16:37:09;;;;;;;9.63;4.85;;;;;;;20.81;45.28;98222.22;10112216;29;20041;-79
2022/05/17 16:42:30;;;;;;;8.15;4.68;;;;;;;20.73;45.94;98213.44;10107976;29;20487;-80
2022/05/17 16:47:52;;;;;;;7.93;4.88;;;;;;;20.69;46.09;98232.44;10113240;29;20488;-80
2022/05/17 16:53:14;;;;;;;6.90;4.60;;;;;;;20.55;45.95;98232.63;10125658;29;20074;-79
2022/05/17 16:58:37;;;;;;;8.90;4.93;;;;;;;20.62;45.73;98225.81;10125663;29;20463;-80
2022/05/17 17:03:58;;;;;;;9.75;4.57;;;;;;;20.62;45.98;98217.28;10125414;29;20044;-80
2022/05/17 17:09:24;;;;;;;5.93;4.28;;;;;;;20.58;45.88;98226.41;10124665;29;20076;-83
2022/05/17 17:14:46;;;;;;;8.00;4.35;;;;;;;20.52;45.47;98231.84;10126907;29;20068;-74
2022/05/17 17:20:09;;;;;;;8.43;4.50;;;;;;;20.38;45.73;98234.16;10129075;29;20123;-75
2022/05/17 17:25:34;;;;;;;6.78;3.35;;;;;;;20.13;45.63;98237.44;10134729;29;20040;-74
2022/05/17 17:30:57;;;;;;;4.25;3.63;;;;;;;19.91;46.19;98240.16;10105158;29;20547;-77
2022/05/17 17:41:58;;;;;;;6.15;3.75;;;;;;;19.96;45.93;98247.41;10139324;29;19933;-77
2022/05/17 17:47:19;;;;;;;6.15;3.35;;;;;;;19.76;45.94;98246.63;10094270;29;20048;-86
2022/05/17 17:52:41;;;;;;;6.75;3.80;;;;;;;19.63;46.30;98254.66;10108369;29;20048;-78
2022/05/17 17:58:02;;;;;;;6.10;3.58;;;;;;;19.57;46.15;98271.38;10121061;29;20060;-75
2022/05/17 18:03:23;;;;;;;6.95;3.50;;;;;;;19.49;46.00;98270.31;10100024;29;20380;-75
2022/05/17 18:08:46;;;;;;;7.90;3.07;;;;;;;19.29;46.23;98275.84;10096935;29;20044;-80
2022/05/17 18:14:08;;;;;;;5.07;3.42;;;;;;;19.47;46.02;98284.38;10118725;29;20048;-78
2022/05/17 18:19:29;;;;;;;6.63;3.50;;;;;;;19.60;45.62;98280.72;10122236;29;20055;-78
2022/05/17 18:24:49;;;;;;;5.13;3.28;;;;;;;19.63;45.54;98291.47;10144313;29;20045;-84
2022/05/17 18:30:11;;;;;;;6.82;5.53;;;;;;;19.60;45.43;98301.25;10096996;29;20045;-81
2022/05/17 18:35:33;;;;;;;7.03;3.78;;;;;;;19.59;45.53;98304.72;10095326;29;20419;-77
2022/05/17 18:40:57;;;;;;;8.95;3.95;;;;;;;19.52;45.62;98311.50;10091732;29;20053;-79
2022/05/17 18:46:19;;;;;;;9.70;4.47;;;;;;;19.49;45.31;98324.81;10107417;29;20047;-75
2022/05/17 18:51:39;;;;;;;7.07;4.53;;;;;;;19.35;45.83;98322.13;10108052;29;20096;-75
2022/05/17 18:57:01;;;;;;;6.47;4.40;;;;;;;19.28;46.38;98331.72;10121573;29;20084;-75
2022/05/17 19:02:25;;;;;;;8.90;4.28;;;;;;;19.16;46.33;98334.78;10122128;29;20100;-75
2022/05/17 19:13:34;;;;;;;7.93;5.10;;;;;;;19.06;47.10;98344.94;10111194;29;20060;-78
2022/05/17 19:18:58;;;;;;;7.25;5.35;;;;;;;18.99;47.14;98360.91;10110688;29;20076;-78
2022/05/17 19:24:21;;;;;;;9.18;6.50;;;;;;;18.87;47.66;98363.91;10096986;29;20406;-78
2022/05/17 19:29:41;;;;;;;9.15;6.20;;;;;;;18.76;48.26;98373.31;10095854;29;20044;-78
2022/05/17 19:35:03;;;;;;;8.48;6.32;;;;;;;18.62;48.25;98383.22;10130622;29;20044;-75
2022/05/17 19:40:27;;;;;;;7.72;6.38;;;;;;;18.51;48.89;98368.59;10106386;29;20498;-78
2022/05/17 19:45:54;;;;;;;9.20;6.32;;;;;;;18.48;49.14;98377.66;10089069;29;20059;-76
2022/05/17 19:51:17;;;;;;;8.23;6.05;;;;;;;18.36;49.95;98369.34;10104476;29;20072;-77
2022/05/17 19:56:46;;;;;;;8.02;6.00;;;;;;;18.23;49.97;98387.06;10095699;29;20052;-77
2022/05/17 20:02:14;;;;;;;7.70;5.68;;;;;;;18.12;50.60;98376.66;10080080;29;20483;-75
2022/05/17 20:07:35;;;;;;;6.85;5.47;;;;;;;17.98;50.88;98377.44;10115374;29;20111;-75
2022/05/17 20:12:56;;;;;;;8.88;6.50;;;;;;;17.94;51.50;98387.78;10102935;29;20056;-75
2022/05/17 20:18:16;;;;;;;9.82;7.40;;;;;;;17.91;51.59;98389.78;10102184;29;20045;-79
2022/05/17 20:23:39;;;;;;;9.55;6.55;;;;;;;17.86;51.93;98388.13;10101504;29;20096;-75
2022/05/17 20:29:01;;;;;;;8.60;6.40;;;;;;;17.78;51.90;98382.09;10115132;29;20045;-73
2022/05/17 20:34:22;;;;;;;9.37;5.93;;;;;;;17.75;52.60;98386.16;10128039;29;20044;-73
2022/05/17 20:39:43;;;;;;;9.90;6.72;;;;;;;17.71;52.90;98389.53;10101109;29;20048;-75
2022/05/17 20:45:06;;;;;;;13.95;7.28;;;;;;;17.69;53.18;98385.84;10112675;29;20104;-76
2022/05/17 20:50:27;;;;;;;11.15;6.88;;;;;;;17.62;53.58;98389.72;10111074;29;20040;-75
2022/05/17 20:55:49;;;;;;;8.00;6.75;;;;;;;17.59;53.49;98396.63;10099548;29;20048;-75
2022/05/17 21:01:10;;;;;;;8.75;6.75;;;;;;;17.53;54.18;98404.78;10113733;29;20092;-74
2022/05/17 21:06:33;;;;;;;9.82;6.47;;;;;;;17.45;54.64;98411.47;10126611;29;20104;-75
2022/05/17 21:11:54;;;;;;;11.02;6.47;;;;;;;17.31;54.69;98419.22;10112794;29;20048;-75
2022/05/17 21:17:14;;;;;;;9.75;6.97;;;;;;;17.19;55.18;98412.94;10126089;29;20119;-75
2022/05/17 21:22:35;;;;;;;9.43;6.45;;;;;;;17.14;55.44;98408.44;10126038;29;20083;-76
2022/05/17 21:27:56;;;;;;;11.50;6.88;;;;;;;17.04;55.64;98410.72;10125591;29;20044;-75
2022/05/17 21:33:17;;;;;;;8.95;6.95;;;;;;;16.98;56.11;98413.22;10112603;29;20052;-76
2022/05/17 21:38:39;;;;;;;13.15;7.53;;;;;;;16.94;56.09;98415.84;10125708;29;20095;-76
2022/05/17 21:44:00;;;;;;;14.35;7.03;;;;;;;16.99;56.72;98411.88;10125169;29;20049;-75
2022/05/17 21:49:20;;;;;;;10.57;6.95;;;;;;;17.01;56.55;98423.28;10111803;29;20112;-76
2022/05/17 21:54:42;;;;;;;11.90;6.30;;;;;;;17.00;56.73;98425.34;10112455;29;20069;-75
2022/05/17 22:00:03;;;;;;;9.85;6.45;;;;;;;16.94;56.99;98425.03;10125325;29;20085;-75
2022/05/17 22:05:24;;;;;;;8.43;6.28;;;;;;;16.88;57.22;98425.41;10099748;29;20048;-76
2022/05/17 22:16:33;;;;;;;11.52;6.75;;;;;;;16.78;57.75;98430.50;10103191;29;20484;-76
2022/05/17 22:21:54;;;;;;;10.00;6.30;;;;;;;16.74;57.56;98429.56;10098248;29;20072;-76
2022/05/17 22:27:15;;;;;;;8.63;6.13;;;;;;;16.71;57.90;98442.09;10124320;29;20052;-76
2022/05/17 22:32:36;;;;;;;12.43;6.38;;;;;;;16.71;58.17;98440.00;10125397;29;20044;-76
2022/05/17 22:37:58;;;;;;;9.23;7.32;;;;;;;16.70;58.52;98440.66;10111223;29;20044;-75
2022/05/17 22:43:19;;;;;;;10.93;7.78;;;;;;;16.76;58.56;98441.69;10133741;29;20495;-76
2022/05/17 22:48:40;;;;;;;8.60;6.55;;;;;;;16.76;58.32;98447.31;10124216;29;20072;-76
2022/05/17 22:54:02;;;;;;;10.18;7.45;;;;;;;16.78;58.36;98453.06;10110525;29;20045;-75
2022/05/17 22:59:23;;;;;;;12.25;7.75;;;;;;;16.91;58.72;98456.56;10136546;29;20522;-76
2022/05/17 23:04:44;;;;;;;9.27;7.03;;;;;;;16.98;58.44;98458.34;10122734;29;20140;-76
2022/05/17 23:10:05;;;;;;;10.65;6.97;;;;;;;17.01;58.83;98462.75;10122131;29;20060;-75
2022/05/17 23:15:26;;;;;;;9.38;6.80;;;;;;;17.04;58.60;98467.13;10122968;29;20045;-75
2022/05/17 23:20:46;;;;;;;12.00;7.65;;;;;;;17.05;58.53;98468.59;10096614;29;20074;-76
2022/05/17 23:31:46;;;;;;;10.63;6.70;;;;;;;17.00;58.98;98475.38;10124846;29;20376;-76
2022/05/17 23:37:06;;;;;;;8.95;7.45;;;;;;;16.99;59.13;98471.84;10122503;29;20499;-75
2022/05/17 23:42:27;;;;;;;14.18;8.23;;;;;;;16.97;59.14;98482.25;10136665;29;20100;-75
2022/05/17 23:47:48;;;;;;;12.10;8.15;;;;;;;16.98;59.37;98478.06;10109019;29;20080;-76
2022/05/17 23:53:09;;;;;;;11.20;7.80;;;;;;;16.99;59.30;98483.13;10107790;29;20100;-75
2022/05/17 23:58:30;;;;;;;9.77;6.95;;;;;;;17.04;59.31;98476.31;10095719;29;20104;-74
